createdAt,value
2022-10-17T00:31:57.600Z,10.57
2022-10-17T00:47:02.335Z,10.41
2022-10-17T01:02:07.184Z,10.31
2022-10-17T01:17:12.461Z,10.22
2022-10-17T01:22:14.301Z,10.2
2022-10-17T01:27:15.544Z,10.13
2022-10-17T01:33:05.201Z,10.29
2022-10-17T01:37:18.832Z,10.16
2022-10-17T01:42:20.676Z,10.09
2022-10-17T01:47:22.480Z,10.03
2022-10-17T01:52:24.459Z,9.99
2022-10-17T01:57:26.119Z,9.92
2022-10-17T02:02:27.259Z,9.87
2022-10-17T02:07:29.193Z,9.84
2022-10-17T02:12:30.779Z,9.81
2022-10-17T02:17:32.147Z,9.81
2022-10-17T02:22:34.035Z,9.79
2022-10-17T02:27:35.604Z,9.72
2022-10-17T02:32:36.785Z,9.68
2022-10-17T02:37:38.177Z,9.64
2022-10-17T02:43:27.782Z,9.77
2022-10-17T02:47:41.941Z,9.63
2022-10-17T02:52:44.071Z,9.51
2022-10-17T02:57:46.142Z,9.46
2022-10-17T03:02:48.097Z,9.35
2022-10-17T03:07:49.478Z,9.32
2022-10-17T03:12:51.358Z,9.28
2022-10-17T03:17:53.385Z,9.25
2022-10-17T03:22:54.819Z,9.21
2022-10-17T03:27:56.381Z,9.12
2022-10-17T03:32:57.746Z,9.09
2022-10-17T03:37:59.871Z,9.02
2022-10-17T03:43:01.642Z,8.95
2022-10-17T03:48:03.367Z,8.93
2022-10-17T03:53:05.326Z,8.92
2022-10-17T03:58:07.201Z,8.85
2022-10-17T04:03:08.577Z,8.82
2022-10-17T04:08:10.414Z,8.76
2022-10-17T04:13:12.129Z,8.74
2022-10-17T04:18:14.300Z,8.67
2022-10-17T04:23:15.868Z,8.64
2022-10-17T04:28:17.650Z,8.58
2022-10-17T04:33:18.776Z,8.57
2022-10-17T04:38:22.786Z,8.47
2022-10-17T04:43:21.848Z,8.46
2022-10-17T04:48:23.297Z,8.38
2022-10-17T04:53:25.459Z,8.34
2022-10-17T04:58:27.327Z,8.28
2022-10-17T05:03:29.229Z,8.26
2022-10-17T05:08:31.339Z,8.21
2022-10-17T05:13:32.645Z,8.2
2022-10-17T05:18:34.830Z,8.13
2022-10-17T05:23:36.935Z,8.1
2022-10-17T05:28:38.285Z,8.04
2022-10-17T05:33:39.743Z,8
2022-10-17T05:38:41.533Z,7.93
2022-10-17T05:43:42.970Z,7.94
2022-10-17T05:48:44.370Z,7.94
2022-10-17T05:53:46.013Z,7.89
2022-10-17T05:58:50.069Z,7.88
2022-10-17T06:03:49.618Z,7.86
2022-10-17T06:08:50.919Z,7.84
2022-10-17T06:13:53.024Z,7.84
2022-10-17T06:19:42.673Z,8.06
2022-10-17T06:23:55.887Z,7.98
2022-10-17T06:28:57.249Z,7.94
2022-10-17T06:33:58.733Z,7.95
2022-10-17T06:38:59.981Z,8.01
2022-10-17T06:44:02.056Z,8.08
2022-10-17T06:49:03.699Z,8.13
2022-10-17T06:54:05.055Z,8.22
2022-10-17T06:59:06.954Z,8.28
2022-10-17T07:04:09.032Z,8.43
2022-10-17T07:09:11.215Z,8.68
2022-10-17T07:14:12.409Z,8.89
2022-10-17T07:19:13.612Z,9.09
2022-10-17T07:24:15.371Z,9.32
2022-10-17T07:30:05.008Z,9.78
2022-10-17T07:34:17.936Z,9.99
2022-10-17T07:39:19.499Z,10.35
2022-10-17T07:44:21.356Z,10.72
2022-10-17T07:49:23.330Z,11.18
2022-10-17T07:54:25.005Z,11.59
2022-10-17T07:59:27.130Z,11.98
2022-10-17T08:04:28.645Z,12.39
2022-10-17T08:09:30.365Z,12.86
2022-10-17T08:14:31.633Z,13.33
2022-10-17T08:19:32.945Z,13.75
2022-10-17T08:24:34.410Z,14.27
2022-10-17T08:29:36.290Z,14.68
2022-10-17T08:34:38.471Z,15.09
2022-10-17T08:39:39.734Z,15.53
2022-10-17T08:44:41.408Z,15.9
2022-10-17T08:49:42.824Z,16.25
2022-10-17T08:54:44.582Z,16.64
2022-10-17T08:59:46.313Z,16.9
2022-10-17T09:04:48.459Z,17.28
2022-10-17T09:09:50.337Z,17.51
2022-10-17T09:14:52.014Z,17.76
2022-10-17T09:19:53.349Z,17.94
2022-10-17T09:24:54.739Z,18.18
2022-10-17T09:29:56.177Z,18.33
2022-10-17T09:34:58.199Z,18.45
2022-10-17T09:40:00.038Z,18.62
2022-10-17T09:45:02.163Z,18.73
2022-10-17T09:50:03.484Z,18.87
2022-10-17T09:55:05.328Z,18.87
2022-10-17T10:00:06.575Z,19
2022-10-17T10:05:08.465Z,19.11
2022-10-17T10:10:09.787Z,19.19
2022-10-17T10:15:11.106Z,19.26
2022-10-17T10:20:12.970Z,19.48
2022-10-17T10:25:14.374Z,19.61
2022-10-17T10:30:16.442Z,19.75
2022-10-17T10:35:18.361Z,19.59
2022-10-17T10:40:19.685Z,19.92
2022-10-17T10:45:43.113Z,20.03
2022-10-17T10:50:23.646Z,20.1
2022-10-17T10:56:13.302Z,20.37
2022-10-17T11:00:27.434Z,20.35
2022-10-17T11:06:17.002Z,20.55
2022-10-17T11:10:30.185Z,20.54
2022-10-17T11:15:31.791Z,20.46
2022-10-17T11:20:33.206Z,20.58
2022-10-17T11:25:34.416Z,20.68
2022-10-17T11:30:36.011Z,20.76
2022-10-17T11:35:38.047Z,20.89
2022-10-17T11:40:40.001Z,20.93
2022-10-17T11:45:41.410Z,21.05
2022-10-17T11:55:43.910Z,21.28
2022-10-17T12:00:48.727Z,21.38
2022-10-17T12:05:47.297Z,21.45
2022-10-17T12:10:49.482Z,21.48
2022-10-17T12:15:51.373Z,21.42
2022-10-17T12:20:52.997Z,21.5
2022-10-17T12:25:55.842Z,21.51
2022-10-17T12:30:55.758Z,21.67
2022-10-17T12:35:57.558Z,21.69
2022-10-17T12:40:59.368Z,21.73
2022-10-17T12:46:01.490Z,21.79
2022-10-17T12:51:24.017Z,21.81
2022-10-17T12:56:04.731Z,21.79
2022-10-17T13:01:22.951Z,21.83
2022-10-17T13:06:07.601Z,21.82
2022-10-17T13:11:09.151Z,21.8
2022-10-17T13:16:10.761Z,21.89
2022-10-17T13:21:24.226Z,21.9
2022-10-17T13:26:14.254Z,21.97
2022-10-17T13:31:15.857Z,22.01
2022-10-17T13:36:17.424Z,22.01
2022-10-17T13:41:36.095Z,21.91
2022-10-17T13:46:36.578Z,21.88
2022-10-17T13:51:22.310Z,21.81
2022-10-17T13:56:28.196Z,21.78
2022-10-17T14:01:25.888Z,21.8
2022-10-17T14:06:27.039Z,21.81
2022-10-17T14:11:29.178Z,21.75
2022-10-17T14:17:18.834Z,21.82
2022-10-17T14:21:43.194Z,21.79
2022-10-17T14:26:33.968Z,21.69
2022-10-17T14:31:35.152Z,21.66
2022-10-17T14:36:46.728Z,21.63
2022-10-17T14:56:53.955Z,21.24
2022-10-17T15:01:55.272Z,21.16
2022-10-17T15:22:02.137Z,20.72
2022-10-17T15:32:06.359Z,20.42
2022-10-17T15:37:07.911Z,20.24
2022-10-17T15:42:09.455Z,20.09
2022-10-17T15:47:11.567Z,19.89
2022-10-17T15:52:13.135Z,19.71
2022-10-17T15:57:15.304Z,19.5
2022-10-17T16:02:16.846Z,19.33
2022-10-17T16:07:18.598Z,19.09
2022-10-17T16:12:20.305Z,18.92
2022-10-17T16:17:22.093Z,18.69
2022-10-17T16:22:23.957Z,18.52
2022-10-17T16:27:25.750Z,18.29
2022-10-17T16:32:27.613Z,18.06
2022-10-17T16:37:29.434Z,17.89
2022-10-17T16:47:33.470Z,17.45
2022-10-17T16:52:35.365Z,17.29
2022-10-17T16:57:37.408Z,17.09
2022-10-17T17:03:27.021Z,17.11
2022-10-17T17:09:16.663Z,17.03
2022-10-17T17:12:42.111Z,16.67
2022-10-17T17:17:54.812Z,16.45
2022-10-17T17:22:45.181Z,16.26
2022-10-17T17:28:34.829Z,16.28
2022-10-17T17:32:48.207Z,15.97
2022-10-17T17:37:50.211Z,15.8
2022-10-17T17:42:52.113Z,15.65
2022-10-17T17:47:54.030Z,15.5
2022-10-17T17:52:55.743Z,15.38
2022-10-17T17:57:57.860Z,15.22
2022-10-17T18:02:59.776Z,15.12
2022-10-17T18:08:01.926Z,14.96
2022-10-17T18:13:03.467Z,14.84
2022-10-17T18:18:04.805Z,14.68
2022-10-17T18:23:06.207Z,14.57
2022-10-17T18:28:07.751Z,14.45
2022-10-17T18:33:09.265Z,14.31
2022-10-17T18:38:11.034Z,14.24
2022-10-17T18:43:13.121Z,14.09
2022-10-17T18:48:15.120Z,13.99
2022-10-17T18:53:16.733Z,13.86
2022-10-17T18:58:18.623Z,13.77
2022-10-17T19:03:20.096Z,13.71
2022-10-17T19:08:21.960Z,13.58
2022-10-17T19:13:23.698Z,13.48
2022-10-17T19:18:25.060Z,13.38
2022-10-17T19:23:26.977Z,13.32
2022-10-17T19:28:29.041Z,13.22
2022-10-17T19:33:30.238Z,13.16
2022-10-17T19:38:31.835Z,13.07
2022-10-17T19:43:33.037Z,12.96
2022-10-17T19:48:34.779Z,12.92
2022-10-17T19:53:36.147Z,12.8
2022-10-17T19:58:37.313Z,12.74
2022-10-17T20:04:27.021Z,12.82
2022-10-17T20:10:16.685Z,12.81
2022-10-17T20:13:43.278Z,12.57
2022-10-17T20:18:45.353Z,12.4
2022-10-17T20:24:34.969Z,12.51
2022-10-17T20:28:48.985Z,12.36
2022-10-17T20:33:50.310Z,12.22
2022-10-17T20:38:51.980Z,12.12
2022-10-17T20:44:41.693Z,12.23
2022-10-17T20:48:55.021Z,12.08
2022-10-17T20:58:57.640Z,11.86
2022-10-17T21:04:06.300Z,11.8
2022-10-17T21:09:01.471Z,11.76
2022-10-17T21:14:51.124Z,11.91
2022-10-17T21:19:05.047Z,11.78
2022-10-17T21:24:06.559Z,11.71
2022-10-17T21:29:08.352Z,11.65
2022-10-17T21:34:10.227Z,11.6
2022-10-17T21:39:12.099Z,11.52
2022-10-17T21:44:13.892Z,11.5
2022-10-17T21:50:03.538Z,11.63
2022-10-17T21:54:16.739Z,11.43
2022-10-17T21:59:18.179Z,11.37
2022-10-17T22:14:23.897Z,11.26
2022-10-17T22:19:25.377Z,11.18
2022-10-17T22:24:27.531Z,11.09
2022-10-17T22:29:29.286Z,11.04
2022-10-17T22:34:30.529Z,11
2022-10-17T22:39:32.708Z,10.96
2022-10-17T22:44:34.177Z,10.97
2022-10-17T22:49:35.571Z,10.91
2022-10-17T22:54:37.483Z,10.89
2022-10-17T22:59:38.770Z,10.83
2022-10-17T23:04:40.670Z,10.79
2022-10-17T23:10:30.299Z,10.94
2022-10-17T23:14:44.237Z,10.77
2022-10-17T23:19:46.227Z,10.72
2022-10-17T23:24:47.931Z,10.65
2022-10-17T23:29:49.637Z,10.59
2022-10-17T23:34:50.797Z,10.56
2022-10-17T23:39:52.288Z,10.52
2022-10-17T23:44:54.226Z,10.5
2022-10-17T23:50:43.831Z,10.61
2022-10-17T23:54:58.069Z,10.4
2022-10-17T23:59:59.610Z,10.36
